Time;durP1;ratioP1;P1;durP2;ratioP2;P2;SDS_P1;SDS_P2;PMS_P1;PMS_P2;Temp;Humidity;BMP_temperature;BMP_pressure;BME280_temperature;BME280_humidity;BME280_pressure;Samples;Min_cycle;Max_cycle;Signal;HPM_P1;HPM_P2
2021/06/01 00:02:08;;;;;;;4.38;1.00;;;17.60;63.90;;;;;;5082300;28;20040;-65
2021/06/01 00:04:33;;;;;;;2.33;1.10;;;17.60;64.30;;;;;;5074763;28;20491;-64
2021/06/01 00:06:59;;;;;;;2.45;1.00;;;17.60;64.60;;;;;;5074924;28;20052;-64
2021/06/01 00:09:25;;;;;;;2.83;1.05;;;17.60;64.70;;;;;;5082950;28;20039;-65
2021/06/01 00:11:50;;;;;;;2.30;0.90;;;17.60;65.10;;;;;;5092461;28;20024;-65
2021/06/01 00:14:17;;;;;;;2.72;1.00;;;17.60;65.50;;;;;;5093671;28;20078;-65
2021/06/01 00:16:43;;;;;;;2.33;1.20;;;17.60;65.60;;;;;;5072692;28;20128;-64
2021/06/01 00:19:10;;;;;;;2.65;1.20;;;17.50;65.10;;;;;;5084260;28;20031;-65
2021/06/01 00:21:36;;;;;;;3.38;1.20;;;17.50;64.50;;;;;;5091107;28;20035;-64
2021/06/01 00:24:03;;;;;;;3.08;1.20;;;17.50;64.90;;;;;;5075042;28;20031;-64
2021/06/01 00:26:29;;;;;;;2.28;1.27;;;17.50;65.60;;;;;;5076375;28;20474;-65
2021/06/01 00:28:54;;;;;;;3.35;1.30;;;17.50;64.90;;;;;;5081278;28;20046;-67
2021/06/01 00:31:20;;;;;;;3.85;1.35;;;17.50;64.70;;;;;;5087476;28;20103;-65
2021/06/01 00:33:45;;;;;;;4.30;1.10;;;17.50;64.70;;;;;;5073049;28;20025;-65
2021/06/01 00:36:11;;;;;;;2.85;1.33;;;17.40;64.30;;;;;;5073083;28;20486;-65
2021/06/01 00:38:37;;;;;;;3.28;1.05;;;17.40;63.90;;;;;;5093364;28;20039;-67
2021/06/01 00:41:04;;;;;;;4.40;1.40;;;17.40;64.10;;;;;;5093079;28;20024;-65
2021/06/01 00:43:31;;;;;;;7.45;1.90;;;17.40;64.50;;;;;;5085738;28;20047;-65
2021/06/01 00:45:56;;;;;;;4.78;1.40;;;17.40;63.90;;;;;;5073065;28;20021;-65
2021/06/01 00:48:22;;;;;;;3.55;1.30;;;17.40;64.10;;;;;;5074209;28;20414;-66
2021/06/01 00:50:48;;;;;;;5.13;1.58;;;17.40;64.30;;;;;;5074479;28;20060;-65
2021/06/01 00:53:13;;;;;;;4.22;1.38;;;17.40;63.30;;;;;;5079511;28;20027;-64
2021/06/01 00:55:39;;;;;;;4.53;1.48;;;17.40;63.10;;;;;;5087640;28;20524;-64
2021/06/01 00:58:05;;;;;;;3.03;1.10;;;17.40;62.90;;;;;;5088547;28;20028;-65
2021/06/01 01:03:15;;;;;;;2.97;1.40;;;17.30;63.10;;;;;;5088141;28;20150;-65
2021/06/01 01:05:47;;;;;;;2.40;1.10;;;17.30;63.30;;;;;;5092414;28;20452;-66
2021/06/01 01:08:31;;;;;;;;;;;17.30;64.10;;;;;;5090206;28;20067;-66
2021/06/01 01:11:31;;;;;;;4.35;1.40;;;17.30;62.90;;;;;;5093961;28;20347;-66
2021/06/01 01:14:10;;;;;;;;;;;17.30;63.30;;;;;;5080625;28;20429;-65
2021/06/01 01:16:37;;;;;;;9.15;1.70;;;17.30;62.70;;;;;;5072369;28;19905;-65
2021/06/01 01:19:10;;;;;;;4.45;1.35;;;17.30;63.70;;;;;;5072335;28;20029;-64
2021/06/01 01:21:42;;;;;;;5.05;1.55;;;17.30;63.30;;;;;;5071747;28;20024;-65
2021/06/01 01:24:32;;;;;;;5.45;1.38;;;17.30;63.60;;;;;;5084292;28;20480;-67
2021/06/01 01:27:11;;;;;;;6.55;1.25;;;17.30;64.20;;;;;;5092572;28;20024;-67
2021/06/01 01:29:41;;;;;;;3.70;1.20;;;17.30;63.90;;;;;;5079684;28;20028;-65
2021/06/01 01:32:33;;;;;;;4.45;1.48;;;17.30;63.70;;;;;;5078441;28;20024;-65
2021/06/01 01:34:59;;;;;;;14.35;1.92;;;17.20;64.00;;;;;;5070600;28;20131;-65
2021/06/01 01:37:28;;;;;;;4.85;1.20;;;17.30;64.40;;;;;;5073145;28;20043;-65
2021/06/01 01:39:58;;;;;;;3.78;1.30;;;17.20;64.30;;;;;;5075051;28;20047;-64
2021/06/01 01:42:25;;;;;;;3.13;1.35;;;17.20;64.80;;;;;;5092437;28;20624;-64
2021/06/01 01:44:53;;;;;;;3.67;1.30;;;17.20;65.00;;;;;;5073591;28;20025;-64
2021/06/01 01:50:07;;;;;;;2.55;1.13;;;17.20;64.90;;;;;;5092594;28;20035;-64
2021/06/01 01:52:36;;;;;;;5.30;1.60;;;17.20;64.90;;;;;;5090833;28;20028;-65
2021/06/01 01:55:03;;;;;;;3.80;1.67;;;17.20;65.00;;;;;;5081631;28;20039;-65
2021/06/01 01:57:29;;;;;;;5.07;1.30;;;17.20;64.90;;;;;;5087203;28;20036;-65
2021/06/01 01:59:56;;;;;;;3.40;1.40;;;17.20;65.40;;;;;;5087344;28;20543;-67
2021/06/01 02:02:22;;;;;;;2.90;1.10;;;17.20;65.60;;;;;;5091664;28;20038;-66
2021/06/01 02:04:49;;;;;;;3.20;1.45;;;17.10;65.80;;;;;;5089694;28;20111;-66
2021/06/01 02:07:14;;;;;;;3.30;1.30;;;17.10;65.80;;;;;;5071421;28;20029;-65
2021/06/01 02:09:40;;;;;;;2.72;1.20;;;17.10;65.90;;;;;;5070276;28;20109;-65
2021/06/01 02:12:06;;;;;;;3.65;1.10;;;17.10;66.10;;;;;;5089985;28;20061;-64
2021/06/01 02:14:32;;;;;;;4.15;1.23;;;17.10;66.10;;;;;;5079411;28;20074;-65
2021/06/01 02:16:58;;;;;;;1.80;1.10;;;17.10;66.80;;;;;;5072903;28;20056;-65
2021/06/01 02:19:24;;;;;;;3.58;1.33;;;17.10;66.80;;;;;;5090132;28;20057;-65
2021/06/01 02:24:27;;;;;;;4.72;1.20;;;17.10;66.50;;;;;;5086872;28;20071;-65
2021/06/01 02:27:14;;;;;;;4.30;1.55;;;17.10;66.70;;;;;;5084647;28;20399;-65
2021/06/01 02:29:43;;;;;;;2.97;1.00;;;17.10;66.70;;;;;;5091750;28;20035;-65
2021/06/01 02:32:11;;;;;;;3.53;1.20;;;17.10;67.60;;;;;;5091656;28;20024;-65
2021/06/01 02:34:39;;;;;;;3.38;1.30;;;17.10;66.90;;;;;;5074150;28;20048;-65
2021/06/01 02:37:06;;;;;;;4.63;1.40;;;17.00;66.60;;;;;;5084782;28;20028;-65
2021/06/01 02:39:33;;;;;;;2.85;1.08;;;17.00;66.80;;;;;;5091242;28;20028;-64
2021/06/01 02:41:59;;;;;;;2.83;1.20;;;17.00;66.90;;;;;;5091617;28;20076;-65
2021/06/01 02:44:25;;;;;;;4.25;1.30;;;17.00;67.40;;;;;;5077329;28;20394;-65
2021/06/01 02:46:51;;;;;;;3.53;1.40;;;17.00;67.90;;;;;;5071230;28;20020;-65
2021/06/01 02:49:18;;;;;;;3.13;1.23;;;17.00;67.40;;;;;;5072349;28;20031;-64
2021/06/01 02:51:44;;;;;;;4.75;1.40;;;17.00;67.30;;;;;;5070733;28;20375;-64
2021/06/01 02:54:10;;;;;;;4.32;1.17;;;17.00;67.60;;;;;;5072365;28;20024;-64
2021/06/01 02:56:36;;;;;;;3.25;1.40;;;17.00;67.30;;;;;;5075936;28;20107;-66
2021/06/01 02:59:07;;;;;;;3.83;1.60;;;17.00;67.40;;;;;;5089802;28;20119;-65
2021/06/01 03:01:33;;;;;;;3.10;1.50;;;17.00;67.20;;;;;;5080307;28;20029;-65
2021/06/01 03:03:58;;;;;;;3.45;1.30;;;17.00;67.30;;;;;;5072087;28;20032;-67
2021/06/01 03:06:25;;;;;;;3.10;1.30;;;17.00;67.60;;;;;;5071084;28;20452;-65
2021/06/01 03:08:51;;;;;;;4.28;1.42;;;17.00;67.10;;;;;;5071208;28;20035;-65
2021/06/01 03:11:20;;;;;;;4.15;1.50;;;17.00;67.30;;;;;;5071202;28;20020;-65
2021/06/01 03:13:47;;;;;;;3.40;1.30;;;17.00;67.20;;;;;;5078851;28;20031;-65
2021/06/01 03:16:14;;;;;;;2.83;1.40;;;17.00;67.00;;;;;;5079248;28;20081;-67
2021/06/01 03:18:41;;;;;;;3.05;1.40;;;16.90;66.90;;;;;;5069606;28;20102;-65
2021/06/01 03:21:06;;;;;;;5.50;1.40;;;16.90;67.10;;;;;;5088313;28;20035;-65
2021/06/01 03:23:32;;;;;;;3.38;1.50;;;16.90;66.90;;;;;;5088192;28;20028;-64
2021/06/01 03:25:58;;;;;;;3.75;1.48;;;16.90;67.00;;;;;;5075128;28;20029;-65
2021/06/01 03:28:24;;;;;;;2.33;1.17;;;16.90;67.50;;;;;;5092722;28;20485;-66
2021/06/01 03:30:51;;;;;;;3.17;1.58;;;16.90;67.60;;;;;;5074632;28;20082;-65
2021/06/01 03:33:17;;;;;;;4.28;1.42;;;16.90;68.00;;;;;;5074781;28;20036;-65
2021/06/01 03:35:43;;;;;;;3.05;1.40;;;16.90;67.60;;;;;;5072932;28;20025;-65
2021/06/01 03:38:09;;;;;;;3.92;1.60;;;16.90;67.90;;;;;;5084057;28;20405;-65
2021/06/01 03:40:36;;;;;;;4.00;1.50;;;16.90;67.90;;;;;;5093011;28;20031;-64
2021/06/01 03:43:02;;;;;;;2.97;1.33;;;16.90;68.10;;;;;;5087327;28;20386;-65
2021/06/01 03:45:27;;;;;;;4.75;1.42;;;16.90;68.50;;;;;;5086712;28;20035;-65
2021/06/01 03:47:53;;;;;;;3.92;1.63;;;16.90;68.50;;;;;;5076744;28;20041;-67
2021/06/01 03:50:19;;;;;;;4.22;1.35;;;16.90;68.40;;;;;;5092644;28;20028;-67
2021/06/01 03:52:46;;;;;;;3.10;1.50;;;16.90;68.80;;;;;;5093853;28;20039;-65
2021/06/01 03:55:12;;;;;;;2.47;1.20;;;16.90;68.60;;;;;;5078072;28;20493;-65
2021/06/01 03:57:38;;;;;;;4.63;1.50;;;16.80;68.50;;;;;;5074961;28;20496;-64
2021/06/01 04:00:06;;;;;;;3.63;1.50;;;16.90;68.60;;;;;;5073933;28;20021;-64
2021/06/01 04:02:32;;;;;;;3.90;1.60;;;16.90;67.90;;;;;;5078558;28;20450;-65
2021/06/01 04:04:57;;;;;;;3.05;1.67;;;16.90;68.40;;;;;;5079475;28;20099;-64
2021/06/01 04:07:23;;;;;;;2.45;1.40;;;16.90;68.00;;;;;;5073636;28;20071;-65
2021/06/01 04:09:48;;;;;;;5.03;1.70;;;16.90;67.80;;;;;;5090201;28;20028;-65
2021/06/01 04:12:14;;;;;;;4.53;1.90;;;16.80;67.00;;;;;;5090947;28;20107;-64
2021/06/01 04:14:39;;;;;;;2.92;1.48;;;16.90;66.90;;;;;;5087591;28;20033;-64
2021/06/01 04:17:05;;;;;;;3.20;1.45;;;16.90;67.00;;;;;;5092514;28;20034;-64
2021/06/01 04:19:32;;;;;;;3.88;1.67;;;16.90;66.50;;;;;;5092960;28;20031;-65
2021/06/01 04:21:59;;;;;;;3.22;1.80;;;16.90;66.50;;;;;;5084056;28;20024;-64
2021/06/01 04:24:27;;;;;;;3.45;1.63;;;16.90;66.40;;;;;;5079470;28;20073;-64
2021/06/01 04:26:54;;;;;;;3.13;1.50;;;16.90;66.30;;;;;;5084267;28;20029;-64
2021/06/01 04:29:19;;;;;;;4.97;1.70;;;16.90;66.20;;;;;;5088329;28;20056;-65
2021/06/01 04:31:45;;;;;;;3.45;1.60;;;16.90;66.40;;;;;;5092076;28;20058;-64
2021/06/01 04:34:10;;;;;;;2.92;1.58;;;16.90;66.50;;;;;;5073040;28;20451;-65
2021/06/01 04:36:36;;;;;;;4.18;1.80;;;16.90;66.30;;;;;;5087272;28;20032;-64
2021/06/01 04:39:01;;;;;;;2.80;1.65;;;16.90;66.20;;;;;;5093409;28;20059;-64
2021/06/01 04:41:27;;;;;;;4.55;1.92;;;17.00;66.70;;;;;;5095889;28;20081;-64
2021/06/01 04:43:52;;;;;;;6.22;2.42;;;17.00;65.50;;;;;;5088247;28;20104;-69
2021/06/01 04:46:18;;;;;;;6.65;2.58;;;17.10;66.30;;;;;;5077163;28;20032;-65
2021/06/01 04:48:43;;;;;;;8.60;2.92;;;17.10;66.50;;;;;;5069655;28;20028;-65
2021/06/01 04:51:16;;;;;;;7.15;2.53;;;17.10;66.90;;;;;;5074942;28;20164;-65
2021/06/01 04:53:48;;;;;;;5.15;2.10;;;17.10;66.50;;;;;;5090776;28;20031;-65
2021/06/01 04:56:14;;;;;;;5.97;2.28;;;17.10;66.40;;;;;;5070952;28;20029;-64
2021/06/01 04:58:40;;;;;;;7.53;2.38;;;17.10;66.30;;;;;;5071223;28;20029;-65
2021/06/01 05:01:06;;;;;;;4.22;1.73;;;17.10;66.60;;;;;;5075773;28;20799;-64
2021/06/01 05:03:31;;;;;;;6.20;2.15;;;17.20;67.00;;;;;;5075931;28;20517;-68
2021/06/01 05:05:57;;;;;;;6.35;2.00;;;17.30;67.50;;;;;;5069455;28;20443;-66
2021/06/01 05:08:22;;;;;;;5.43;2.03;;;17.20;66.70;;;;;;5091126;28;20097;-71
2021/06/01 05:10:48;;;;;;;5.78;2.42;;;17.20;65.60;;;;;;5096200;28;20028;-66
2021/06/01 05:13:13;;;;;;;6.13;2.70;;;17.20;65.90;;;;;;5096009;28;20409;-66
2021/06/01 05:15:39;;;;;;;8.02;2.83;;;17.20;64.60;;;;;;5092842;28;20112;-64
2021/06/01 05:18:04;;;;;;;9.00;2.58;;;17.20;63.70;;;;;;5104626;28;20039;-65
2021/06/01 05:20:30;;;;;;;5.38;2.47;;;17.20;64.00;;;;;;5086413;28;20062;-64
2021/06/01 05:22:55;;;;;;;5.47;2.20;;;17.10;63.50;;;;;;5086771;28;20024;-63
2021/06/01 05:25:21;;;;;;;6.70;2.80;;;17.10;63.40;;;;;;5094275;28;20105;-66
2021/06/01 05:27:46;;;;;;;6.63;2.63;;;17.20;63.90;;;;;;5082917;28;20062;-64
2021/06/01 05:30:16;;;;;;;4.90;2.50;;;17.20;63.70;;;;;;5081303;28;20609;-68
2021/06/01 05:35:18;;;;;;;7.32;2.78;;;17.30;62.50;;;;;;5094204;28;20076;-63
2021/06/01 05:37:45;;;;;;;8.13;2.72;;;17.30;62.20;;;;;;5092164;28;20020;-67
2021/06/01 05:40:11;;;;;;;6.32;2.55;;;17.40;62.60;;;;;;5095896;28;20582;-65
2021/06/01 05:42:36;;;;;;;5.78;2.50;;;17.40;62.10;;;;;;5090938;28;20031;-65
2021/06/01 05:45:03;;;;;;;5.15;2.33;;;17.50;61.90;;;;;;5070374;28;20052;-65
2021/06/01 05:47:29;;;;;;;7.88;2.33;;;17.50;61.40;;;;;;5074415;28;20195;-65
2021/06/01 05:49:54;;;;;;;5.05;2.20;;;17.60;61.70;;;;;;5071299;28;20429;-65
2021/06/01 05:52:20;;;;;;;6.32;2.35;;;17.70;61.90;;;;;;5079171;28;20071;-71
2021/06/01 05:54:47;;;;;;;7.60;2.65;;;17.80;62.20;;;;;;5077942;28;20036;-67
2021/06/01 05:57:12;;;;;;;6.55;2.28;;;17.90;62.10;;;;;;5089959;28;20024;-68
2021/06/01 05:59:37;;;;;;;5.18;1.90;;;18.00;62.00;;;;;;5094252;28;20358;-66
2021/06/01 06:02:03;;;;;;;4.05;2.10;;;18.00;61.90;;;;;;5092994;28;20081;-64
2021/06/01 06:04:29;;;;;;;4.85;2.00;;;18.20;61.90;;;;;;5092694;28;20023;-67
2021/06/01 06:06:54;;;;;;;6.50;2.13;;;18.30;61.90;;;;;;5093419;28;20028;-67
2021/06/01 06:09:20;;;;;;;6.72;2.03;;;18.30;61.20;;;;;;5084830;28;20035;-66
2021/06/01 06:11:46;;;;;;;6.28;2.03;;;18.40;61.20;;;;;;5079443;28;20486;-64
2021/06/01 06:14:11;;;;;;;5.55;1.85;;;18.50;61.10;;;;;;5091648;28;20490;-66
2021/06/01 06:16:50;;;;;;;4.05;1.90;;;18.60;60.70;;;;;;5094104;28;20339;-66
2021/06/01 06:19:16;;;;;;;6.03;2.13;;;18.70;60.20;;;;;;5090898;28;20046;-67
2021/06/01 06:21:41;;;;;;;5.30;2.00;;;18.80;60.40;;;;;;5074709;28;20024;-67
2021/06/01 06:24:07;;;;;;;6.60;2.47;;;18.80;60.30;;;;;;5079692;28;20103;-68
2021/06/01 06:26:33;;;;;;;5.78;2.17;;;18.80;60.00;;;;;;5084244;28;20040;-65
2021/06/01 06:28:59;;;;;;;7.50;2.40;;;18.90;59.30;;;;;;5083303;28;20447;-65
2021/06/01 06:31:24;;;;;;;6.00;2.28;;;18.90;59.20;;;;;;5084865;28;20028;-65
2021/06/01 06:33:50;;;;;;;5.75;2.40;;;18.90;58.90;;;;;;5084323;28;20090;-65
2021/06/01 06:36:15;;;;;;;4.45;2.10;;;18.90;58.90;;;;;;5085440;28;20024;-65
2021/06/01 06:38:45;;;;;;;6.20;2.00;;;19.00;58.60;;;;;;5083422;28;20489;-67
2021/06/01 06:41:13;;;;;;;5.57;1.98;;;19.00;58.40;;;;;;5082815;28;20078;-70
2021/06/01 06:43:41;;;;;;;4.55;2.00;;;19.10;58.50;;;;;;5081624;28;20020;-65
2021/06/01 06:46:12;;;;;;;6.28;2.08;;;19.10;58.60;;;;;;5074241;28;20028;-65
2021/06/01 06:48:38;;;;;;;7.38;1.95;;;19.10;58.70;;;;;;5085773;28;20384;-70
2021/06/01 06:51:12;;;;;;;4.82;2.00;;;19.20;58.60;;;;;;5085708;28;20034;-65
2021/06/01 06:53:54;;;;;;;5.75;2.20;;;19.30;58.10;;;;;;5097101;28;20016;-66
2021/06/01 06:56:21;;;;;;;4.07;1.80;;;19.40;58.40;;;;;;5085287;28;20078;-68
2021/06/01 06:58:47;;;;;;;5.68;2.03;;;19.40;57.50;;;;;;5094409;28;20519;-69
2021/06/01 07:01:14;;;;;;;3.85;2.00;;;19.50;57.30;;;;;;5087463;28;20046;-65
2021/06/01 07:03:39;;;;;;;4.22;2.08;;;19.60;57.00;;;;;;5090970;28;20073;-66
2021/06/01 07:06:05;;;;;;;7.40;2.03;;;19.60;56.80;;;;;;5109097;28;20477;-68
2021/06/01 07:08:32;;;;;;;6.07;1.67;;;19.70;56.70;;;;;;5114780;28;20439;-66
2021/06/01 07:10:58;;;;;;;4.70;1.65;;;19.80;56.70;;;;;;5115761;28;20484;-66
2021/06/01 07:13:52;;;;;;;3.10;1.67;;;19.80;56.50;;;;;;5115506;28;20031;-66
2021/06/01 07:16:18;;;;;;;5.35;1.95;;;19.80;56.30;;;;;;5114446;28;20039;-67
2021/06/01 07:18:44;;;;;;;5.15;1.83;;;19.90;56.30;;;;;;5115122;28;20059;-66
2021/06/01 07:21:14;;;;;;;4.28;1.80;;;20.00;56.00;;;;;;5115440;28;20047;-65
2021/06/01 07:23:39;;;;;;;5.07;1.70;;;20.00;55.80;;;;;;5115078;28;20016;-66
2021/06/01 07:26:07;;;;;;;3.45;1.40;;;20.10;55.70;;;;;;5113921;28;20023;-65
2021/06/01 07:28:33;;;;;;;6.35;2.03;;;20.10;55.60;;;;;;5115273;28;20032;-64
2021/06/01 07:31:03;;;;;;;4.28;1.55;;;20.20;55.40;;;;;;5115167;28;20046;-66
2021/06/01 07:33:29;;;;;;;2.78;1.58;;;20.20;55.40;;;;;;5114928;28;20019;-67
2021/06/01 07:35:55;;;;;;;4.07;1.60;;;20.30;55.00;;;;;;5115066;28;20060;-66
2021/06/01 07:38:20;;;;;;;3.97;1.60;;;20.30;55.10;;;;;;5101235;28;20071;-67
2021/06/01 07:40:46;;;;;;;3.67;1.42;;;20.40;55.00;;;;;;5099159;28;20020;-66
2021/06/01 07:43:12;;;;;;;4.38;1.70;;;20.50;54.60;;;;;;5097983;28;20024;-66
2021/06/01 07:45:38;;;;;;;4.10;1.55;;;20.50;54.40;;;;;;5110741;28;20365;-66
2021/06/01 07:48:04;;;;;;;2.33;1.25;;;20.60;54.30;;;;;;5104897;28;20026;-66
2021/06/01 07:50:29;;;;;;;3.85;1.52;;;20.70;54.40;;;;;;5114427;28;20366;-66
2021/06/01 07:52:55;;;;;;;4.70;1.50;;;20.70;54.10;;;;;;5098708;28;20038;-65
2021/06/01 07:55:21;;;;;;;4.20;1.60;;;20.60;54.20;;;;;;5094029;28;20031;-65
2021/06/01 07:57:47;;;;;;;4.25;1.70;;;20.70;53.70;;;;;;5094180;28;20386;-66
2021/06/01 08:00:13;;;;;;;3.58;1.73;;;20.70;54.10;;;;;;5094238;28;20024;-66
2021/06/01 08:02:40;;;;;;;3.03;1.30;;;20.80;53.60;;;;;;5092873;28;20021;-66
2021/06/01 08:05:06;;;;;;;2.50;1.23;;;20.90;53.60;;;;;;5093946;28;20477;-65
2021/06/01 08:07:33;;;;;;;3.75;1.55;;;20.90;53.20;;;;;;5094035;28;20663;-66
2021/06/01 08:09:59;;;;;;;3.08;1.30;;;20.90;53.40;;;;;;5094619;28;20024;-65
2021/06/01 08:12:25;;;;;;;3.15;1.50;;;20.90;53.30;;;;;;5093734;28;20043;-66
2021/06/01 08:14:52;;;;;;;4.60;1.70;;;20.90;53.40;;;;;;5092385;28;20024;-67
2021/06/01 08:17:18;;;;;;;3.35;1.70;;;21.00;53.30;;;;;;5092523;28;20028;-66
2021/06/01 08:19:45;;;;;;;3.58;1.50;;;21.10;53.00;;;;;;5093923;28;20025;-66
2021/06/01 08:24:48;;;;;;;3.88;1.60;;;21.10;52.90;;;;;;5093785;28;20024;-65
2021/06/01 08:27:14;;;;;;;3.65;1.60;;;21.10;53.00;;;;;;5093866;28;20401;-65
2021/06/01 08:29:40;;;;;;;3.40;1.77;;;21.20;52.50;;;;;;5093618;28;20497;-66
2021/06/01 08:32:05;;;;;;;2.70;1.45;;;21.30;52.50;;;;;;5093663;28;20027;-68
2021/06/01 08:34:31;;;;;;;3.30;1.60;;;21.30;52.20;;;;;;5091954;28;20031;-65
2021/06/01 08:36:57;;;;;;;4.18;1.80;;;21.30;52.00;;;;;;5093454;28;20031;-65
2021/06/01 08:39:26;;;;;;;3.80;1.50;;;21.40;52.30;;;;;;5093515;28;20031;-66
2021/06/01 08:41:56;;;;;;;3.17;1.50;;;21.40;52.10;;;;;;5093428;28;20061;-68
2021/06/01 08:44:24;;;;;;;4.30;1.70;;;21.50;52.20;;;;;;5093139;28;20103;-65
2021/06/01 08:46:51;;;;;;;4.30;1.55;;;21.50;52.00;;;;;;5092988;28;20038;-65
2021/06/01 08:49:20;;;;;;;3.03;1.63;;;21.40;52.10;;;;;;5093352;28;20020;-66
2021/06/01 08:51:48;;;;;;;2.50;1.40;;;21.40;51.90;;;;;;5092076;28;20377;-66
2021/06/01 08:54:15;;;;;;;3.95;1.70;;;21.50;52.00;;;;;;5092966;28;20099;-65
2021/06/01 08:56:41;;;;;;;3.03;1.65;;;21.50;51.70;;;;;;5093246;28;20028;-66
2021/06/01 08:59:09;;;;;;;5.47;1.83;;;21.60;51.60;;;;;;5092966;28;20032;-66
2021/06/01 09:01:34;;;;;;;4.00;1.75;;;21.60;51.30;;;;;;5093089;28;20040;-67
2021/06/01 09:04:06;;;;;;;4.05;1.75;;;21.70;51.30;;;;;;5092782;28;20035;-66
2021/06/01 09:06:38;;;;;;;4.13;1.60;;;21.70;51.10;;;;;;5092993;28;20020;-66
2021/06/01 09:22:49;;;;;;;5.35;1.83;;;21.50;51.80;;;;;;5093011;28;20035;-65
2021/06/01 09:28:24;;;;;;;4.00;1.70;;;21.90;50.60;;;;;;5102277;28;20043;-65
2021/06/01 09:30:58;;;;;;;3.92;1.67;;;22.10;50.10;;;;;;5092593;28;20436;-66
2021/06/01 09:33:30;;;;;;;4.10;1.50;;;22.10;50.00;;;;;;5092478;28;20040;-65
2021/06/01 09:35:59;;;;;;;4.82;1.88;;;22.40;49.50;;;;;;5092515;28;20024;-66
2021/06/01 09:38:35;;;;;;;4.68;1.90;;;22.40;49.30;;;;;;5092321;28;20034;-65
2021/06/01 09:41:07;;;;;;;4.80;1.90;;;22.50;48.90;;;;;;5092328;28;20020;-65
2021/06/01 09:43:47;;;;;;;4.28;1.90;;;22.60;48.70;;;;;;5092058;28;20026;-68
2021/06/01 09:46:24;;;;;;;5.32;1.88;;;22.60;48.80;;;;;;5092102;28;20500;-66
2021/06/01 09:48:51;;;;;;;5.72;1.95;;;22.70;48.60;;;;;;5092200;28;20440;-66
2021/06/01 09:51:24;;;;;;;3.53;1.70;;;22.80;48.10;;;;;;5090961;28;20059;-66
2021/06/01 09:53:53;;;;;;;5.22;1.88;;;22.80;48.40;;;;;;5090592;28;20074;-65
2021/06/01 09:56:19;;;;;;;4.47;1.83;;;22.90;48.30;;;;;;5090849;28;20077;-65
2021/06/01 09:58:44;;;;;;;4.57;1.88;;;23.00;48.00;;;;;;5090800;28;20483;-66
2021/06/01 10:01:10;;;;;;;4.60;1.80;;;23.00;47.60;;;;;;5092004;28;20059;-66
2021/06/01 10:03:40;;;;;;;4.10;1.73;;;23.10;47.60;;;;;;5080441;28;20382;-65
2021/06/01 10:06:06;;;;;;;4.10;1.90;;;23.20;47.50;;;;;;5070391;28;20024;-65
2021/06/01 10:08:32;;;;;;;4.18;1.67;;;23.30;47.40;;;;;;5071760;28;20078;-65
2021/06/01 10:11:00;;;;;;;3.80;1.63;;;23.30;46.90;;;;;;5071603;28;20390;-66
2021/06/01 10:13:27;;;;;;;3.80;1.85;;;23.30;47.10;;;;;;5071563;28;20060;-66
2021/06/01 10:15:55;;;;;;;4.93;2.03;;;23.30;47.00;;;;;;5071428;28;20516;-67
2021/06/01 10:18:22;;;;;;;4.93;1.75;;;23.30;47.30;;;;;;5070179;28;20044;-66
2021/06/01 10:20:51;;;;;;;4.93;1.95;;;23.30;46.80;;;;;;5071699;28;20038;-66
2021/06/01 10:23:31;;;;;;;4.70;1.85;;;23.30;47.00;;;;;;5071610;28;20021;-66
2021/06/01 10:25:58;;;;;;;5.00;2.03;;;23.30;46.90;;;;;;5071493;28;20017;-67
2021/06/01 10:28:31;;;;;;;7.10;1.83;;;23.30;46.70;;;;;;5071572;28;20409;-66
2021/06/01 10:30:57;;;;;;;4.53;1.80;;;23.30;46.90;;;;;;5071617;28;20024;-66
2021/06/01 10:33:26;;;;;;;4.38;1.60;;;23.30;46.90;;;;;;5071755;28;20047;-66
2021/06/01 10:52:09;;;;;;;5.03;1.70;;;23.30;46.80;;;;;;5075529;28;20024;-66
2021/06/01 10:54:50;;;;;;;3.33;1.55;;;23.30;46.60;;;;;;5075000;28;20490;-65
2021/06/01 10:57:19;;;;;;;3.90;1.58;;;23.30;46.70;;;;;;5075109;28;20378;-65
2021/06/01 11:01:49;;;;;;;4.28;1.85;;;23.20;46.60;;;;;;5075218;28;20457;-65
2021/06/01 11:02:36;;;;;;;3.63;1.65;;;23.30;46.80;;;;;;5074788;28;20031;-66
2021/06/01 11:05:07;;;;;;;4.88;1.88;;;23.30;46.80;;;;;;5074786;28;20020;-66
2021/06/01 11:07:52;;;;;;;;;;;23.20;46.90;;;;;;5075363;28;20025;-66
2021/06/01 11:10:42;;;;;;;3.40;1.60;;;23.30;46.70;;;;;;5074900;28;19999;-66
2021/06/01 11:13:18;;;;;;;3.10;1.50;;;23.30;47.00;;;;;;5073617;28;20436;-67
2021/06/01 11:15:56;;;;;;;3.83;1.60;;;23.30;47.00;;;;;;5074578;28;20051;-66
2021/06/01 11:18:36;;;;;;;3.65;1.60;;;23.30;47.00;;;;;;5074703;28;20089;-66
2021/06/01 11:21:34;;;;;;;3.22;1.40;;;23.20;47.40;;;;;;5074894;28;20100;-65
2021/06/01 11:32:49;;;;;;;5.18;1.70;;;23.00;48.20;;;;;;5074569;28;20473;-65
2021/06/01 11:35:30;;;;;;;4.55;1.70;;;22.80;48.40;;;;;;5074268;28;20021;-66
2021/06/01 11:43:03;;;;;;;4.18;1.85;;;21.70;51.70;;;;;;5074339;28;20107;-65
2021/06/01 11:45:49;;;;;;;4.78;1.88;;;21.30;52.70;;;;;;5072554;28;20028;-65
2021/06/01 11:53:55;;;;;;;3.08;1.42;;;20.90;54.20;;;;;;5100719;28;20036;-67
2021/06/01 12:13:32;;;;;;;4.10;1.70;;;20.80;54.90;;;;;;5103379;28;20413;-68
2021/06/01 12:19:12;;;;;;;3.95;1.80;;;20.90;54.60;;;;;;5075499;28;20064;-65
2021/06/01 12:21:46;;;;;;;4.65;1.85;;;20.80;54.00;;;;;;5083240;28;20036;-66
2021/06/01 12:24:18;;;;;;;3.25;1.60;;;20.80;54.90;;;;;;5091685;28;20367;-66
2021/06/01 12:32:04;;;;;;;3.65;1.77;;;20.70;55.30;;;;;;5092869;28;20490;-65
2021/06/01 12:41:41;;;;;;;5.25;1.65;;;20.60;55.70;;;;;;5089645;28;19909;-67
2021/06/01 12:43:25;;;;;;;4.75;1.50;;;20.60;55.40;;;;;;5093112;28;20114;-65
2021/06/01 13:31:56;;;;;;;4.47;2.03;;;20.50;55.50;;;;;;5092221;28;20100;-65
2021/06/01 13:40:01;;;;;;;2.92;1.67;;;20.50;55.90;;;;;;5092047;28;20032;-65
2021/06/01 13:50:32;;;;;;;3.40;1.90;;;20.50;56.50;;;;;;5075442;28;20379;-65
2021/06/01 13:55:06;;;;;;;3.70;1.60;;;20.50;56.60;;;;;;5086629;28;20071;-67
2021/06/01 13:55:59;;;;;;;3.80;1.80;;;20.50;56.70;;;;;;5086025;28;20512;-65
2021/06/01 14:01:09;;;;;;;4.22;1.80;;;20.40;56.40;;;;;;5094790;28;20076;-64
2021/06/01 15:47:45;;;;;;;2.88;1.50;;;20.20;58.40;;;;;;5074646;28;20032;-65
2021/06/01 15:53:10;;;;;;;4.00;1.73;;;20.10;58.80;;;;;;5082811;28;20081;-65
2021/06/01 15:59:02;;;;;;;4.50;1.90;;;20.20;59.10;;;;;;5093977;28;20592;-65
2021/06/01 16:12:41;;;;;;;4.88;1.80;;;20.10;58.20;;;;;;5094138;28;20117;-64
2021/06/01 16:15:30;;;;;;;4.70;1.95;;;20.10;58.20;;;;;;5093876;28;20020;-65
2021/06/01 16:23:44;;;;;;;6.25;2.20;;;20.10;58.30;;;;;;5091300;28;20051;-66
2021/06/01 16:31:46;;;;;;;5.25;2.08;;;20.10;58.90;;;;;;5094125;28;20111;-65
2021/06/01 16:43:26;;;;;;;6.88;2.25;;;20.10;58.70;;;;;;5093958;28;20027;-64
2021/06/01 17:07:20;;;;;;;5.60;2.28;;;20.10;60.20;;;;;;5091117;28;20050;-66
2021/06/01 17:12:45;;;;;;;8.90;2.60;;;20.10;60.30;;;;;;5092750;28;20440;-65
2021/06/01 17:15:13;;;;;;;7.15;2.42;;;20.10;60.30;;;;;;5092780;28;20088;-64
2021/06/01 17:17:46;;;;;;;5.57;2.13;;;20.10;60.20;;;;;;5092650;28;20173;-65
2021/06/01 17:20:37;;;;;;;5.00;2.25;;;20.00;60.30;;;;;;5092838;28;20020;-65
2021/06/01 17:36:40;;;;;;;19.52;7.80;;;20.10;60.70;;;;;;5081359;28;20024;-65
2021/06/01 17:39:06;;;;;;;43.72;18.48;;;20.10;61.00;;;;;;5088642;28;20099;-67
2021/06/01 17:41:36;;;;;;;43.67;17.23;;;20.10;61.30;;;;;;5090485;28;20028;-63
2021/06/01 17:44:04;;;;;;;46.67;19.38;;;20.20;61.10;;;;;;5082251;28;20070;-65
2021/06/01 17:46:34;;;;;;;26.70;12.80;;;20.30;61.10;;;;;;5068556;28;20028;-66
2021/06/01 17:49:01;;;;;;;27.73;11.13;;;20.30;59.90;;;;;;5072604;28;20028;-66
2021/06/01 17:51:28;;;;;;;17.85;7.25;;;20.30;60.30;;;;;;5089040;28;20109;-65
2021/06/01 17:53:56;;;;;;;26.58;9.13;;;20.30;60.10;;;;;;5078459;28;20035;-66
2021/06/01 17:56:24;;;;;;;18.80;7.35;;;20.30;60.40;;;;;;5090745;28;20024;-66
2021/06/01 17:58:50;;;;;;;18.42;7.40;;;20.30;60.60;;;;;;5081148;28;20107;-65
2021/06/01 18:01:17;;;;;;;22.90;11.10;;;20.30;60.00;;;;;;5098221;28;20032;-66
2021/06/01 18:03:52;;;;;;;20.55;8.95;;;20.20;60.40;;;;;;5100085;28;20053;-65
2021/06/01 18:06:18;;;;;;;25.10;10.88;;;20.20;60.60;;;;;;5112130;28;20104;-64
2021/06/01 18:09:09;;;;;;;23.95;10.27;;;20.20;62.40;;;;;;5105778;28;20019;-65
2021/06/01 18:11:54;;;;;;;19.60;7.47;;;20.30;62.30;;;;;;5089259;28;20028;-66
2021/06/01 19:01:55;;;;;;;9.23;4.78;;;20.20;61.80;;;;;;5096754;28;20034;-64
2021/06/01 19:24:03;;;;;;;13.18;5.95;;;20.10;63.00;;;;;;5115591;28;20070;-66
2021/06/01 19:29:06;;;;;;;10.60;5.35;;;20.10;62.10;;;;;;5096529;28;20025;-66
2021/06/01 19:42:25;;;;;;;11.23;5.13;;;20.10;62.30;;;;;;5115030;28;19915;-66
2021/06/01 19:51:11;;;;;;;10.55;4.38;;;20.00;60.90;;;;;;5094680;28;20034;-66
2021/06/01 19:53:40;;;;;;;10.45;4.90;;;20.00;60.40;;;;;;5093026;28;20035;-65
2021/06/01 19:56:05;;;;;;;9.98;5.18;;;20.00;61.90;;;;;;5094496;28;20024;-65
2021/06/01 19:58:33;;;;;;;9.52;4.70;;;20.00;61.70;;;;;;5093695;28;20065;-65
2021/06/01 20:01:03;;;;;;;9.73;4.43;;;20.00;61.60;;;;;;5095415;28;20393;-65